Aviation Digital Data Service (ADDS)

Output produced by METARs form (1537 UTC 23 January 2019)
found at http://www.aviationweather.gov/metar/data/
 
Forecast for: CYZF (YELLOWKNIFE AIRP, NT, CA)
Text: TAF CYZF 231138Z 2312/2412 31008KT P6SM SKC
Forecast period: 1200 to 1500 UTC 23 January 2019
Forecast type: FROM: standard forecast or significant change
Winds: from the NW (310 degrees) at 9 MPH (8 knots; 4.1 m/s)
Visibility: 6 or more miles 10+ km)
Clouds: clear skies
Weather: no significant weather forecast for this period
Text: FM231500 28005KT P6SM SCT060
Forecast period: 1500 to 2000 UTC 23 January 2019
Forecast type: FROM: standard forecast or significant change
Winds: from the W (280 degrees) at 6 MPH (5 knots; 2.6 m/s)
Visibility: 6 or more miles 10+ km)
Ceiling: at least 12,000 feet AGL
Clouds: scattered clouds at 6000 feet AGL
Weather: no significant weather forecast for this period
Text: BECMG 2320/2322 16005KT RMK NXT FCST BY 231800Z
Forecast period: 2000 UTC 23 January 2019 to 1200 UTC 24 January 2019
Forecast type: BECOMING: Conditions expected to become as follows by 2200 UTC 23 January 2019
Winds: from the SSE (160 degrees) at 6 MPH (5 knots; 2.6 m/s)
Visibility: 6 or more miles 10+ km)
Ceiling: at least 12,000 feet AGL
Clouds: scattered clouds at 6000 feet AGL
Weather: no significant weather forecast for this period